Time;durP1;ratioP1;P1;durP2;ratioP2;P2;SDS_P1;SDS_P2;PMS_P1;PMS_P2;Temp;Humidity;BMP_temperature;BMP_pressure;BME280_temperature;BME280_humidity;BME280_pressure;Samples;Min_cycle;Max_cycle;Signal;HPM_P1;HPM_P2
2023/03/20 00:00:20;;;;;;;17.17;9.13;;;8.90;99.90;;;;;;5008887;28;20528;-81
2023/03/20 00:02:45;;;;;;;15.27;8.43;;;8.90;99.90;;;;;;5008584;28;20042;-81
2023/03/20 00:05:17;;;;;;;13.47;8.47;;;8.90;99.90;;;;;;5006873;28;20045;-81
2023/03/20 00:07:44;;;;;;;13.25;8.43;;;8.90;99.90;;;;;;4994566;28;20069;-81
2023/03/20 00:10:10;;;;;;;15.87;9.00;;;8.90;99.90;;;;;;4984636;28;20119;-81
2023/03/20 00:12:36;;;;;;;13.63;8.80;;;8.90;99.90;;;;;;4998111;28;20042;-81
2023/03/20 00:15:05;;;;;;;13.77;8.93;;;8.90;99.90;;;;;;4987756;28;20040;-81
2023/03/20 00:17:31;;;;;;;14.63;9.17;;;8.90;99.90;;;;;;4997155;28;20110;-81
2023/03/20 00:19:57;;;;;;;16.37;9.43;;;8.90;99.90;;;;;;5000625;28;20484;-81
2023/03/20 00:22:22;;;;;;;15.60;9.17;;;8.90;99.90;;;;;;4990374;28;20066;-81
2023/03/20 00:24:48;;;;;;;15.20;9.70;;;8.90;99.90;;;;;;4997112;28;20050;-81
2023/03/20 00:27:16;;;;;;;17.93;11.03;;;8.90;99.90;;;;;;4997005;28;20045;-81
2023/03/20 00:29:42;;;;;;;17.43;9.93;;;8.90;99.90;;;;;;4982780;28;20041;-81
2023/03/20 00:32:12;;;;;;;20.10;12.23;;;8.80;99.90;;;;;;4950763;28;20038;-81
2023/03/20 00:34:38;;;;;;;22.33;11.37;;;8.80;99.90;;;;;;4989731;28;20124;-82
2023/03/20 00:37:04;;;;;;;21.17;11.37;;;8.80;99.90;;;;;;4980474;28;20577;-81
2023/03/20 00:39:30;;;;;;;18.40;10.60;;;8.80;99.90;;;;;;4990064;28;20045;-81
2023/03/20 00:42:07;;;;;;;17.67;10.43;;;8.70;99.90;;;;;;4987740;28;20102;-81
2023/03/20 00:45:01;;;;;;;14.80;9.47;;;8.70;99.90;;;;;;5012872;28;20045;-81
2023/03/20 00:47:29;;;;;;;20.03;9.40;;;8.70;99.90;;;;;;4982925;28;20054;-81
2023/03/20 00:49:54;;;;;;;14.83;9.00;;;8.60;99.90;;;;;;4989103;28;20038;-81
2023/03/20 00:52:21;;;;;;;14.57;9.03;;;8.60;99.90;;;;;;4988141;28;20054;-81
2023/03/20 00:54:47;;;;;;;12.90;8.10;;;8.60;99.90;;;;;;4993350;28;20041;-81
2023/03/20 00:57:21;;;;;;;17.30;9.63;;;8.60;99.90;;;;;;4975905;28;20042;-81
2023/03/20 01:00:18;;;;;;;17.63;9.33;;;8.60;99.90;;;;;;5013382;28;20037;-81
2023/03/20 01:02:44;;;;;;;15.50;8.90;;;8.60;99.90;;;;;;4982045;28;20496;-81
2023/03/20 01:05:11;;;;;;;12.80;7.53;;;8.60;99.90;;;;;;4980087;28;20057;-81
2023/03/20 01:07:38;;;;;;;14.40;7.63;;;8.60;99.90;;;;;;4996142;28;20052;-81
2023/03/20 01:10:05;;;;;;;11.73;7.67;;;8.60;99.90;;;;;;4993185;28;20524;-81
2023/03/20 01:12:31;;;;;;;10.30;6.73;;;8.60;99.90;;;;;;5007849;28;20042;-81
2023/03/20 01:14:58;;;;;;;13.43;7.57;;;8.60;99.90;;;;;;4982374;28;20368;-81
2023/03/20 01:17:25;;;;;;;11.50;7.37;;;8.60;99.90;;;;;;4987036;28;20497;-81
2023/03/20 01:19:52;;;;;;;12.83;7.67;;;8.60;99.90;;;;;;4977232;28;20089;-81
2023/03/20 01:22:17;;;;;;;14.70;7.10;;;8.60;99.90;;;;;;4997253;28;20585;-81
2023/03/20 01:24:43;;;;;;;11.70;7.10;;;8.60;99.90;;;;;;4980551;28;20080;-81
2023/03/20 01:27:19;;;;;;;13.27;7.10;;;8.60;99.90;;;;;;4985296;28;20101;-81
2023/03/20 01:29:45;;;;;;;13.83;7.30;;;8.60;99.90;;;;;;4990543;28;20041;-81
2023/03/20 01:32:13;;;;;;;14.03;6.77;;;8.50;99.90;;;;;;4985143;28;20044;-81
2023/03/20 01:34:42;;;;;;;12.80;7.57;;;8.50;99.90;;;;;;4985590;28;20077;-81
2023/03/20 01:37:22;;;;;;;12.83;7.20;;;8.50;99.90;;;;;;4995248;28;20442;-81
2023/03/20 01:39:48;;;;;;;12.80;7.07;;;8.50;99.90;;;;;;4992756;28;20050;-80
2023/03/20 01:42:15;;;;;;;16.87;8.10;;;8.50;99.90;;;;;;4979630;28;20046;-81
2023/03/20 01:44:42;;;;;;;11.77;7.37;;;8.50;99.90;;;;;;5011136;28;20044;-81
2023/03/20 01:47:17;;;;;;;13.07;7.20;;;8.50;99.90;;;;;;5011894;28;20081;-81
2023/03/20 01:50:16;;;;;;;11.57;7.00;;;8.50;99.90;;;;;;5006191;28;20054;-81
2023/03/20 01:52:42;;;;;;;12.83;7.77;;;8.50;99.90;;;;;;5006959;28;20050;-81
2023/03/20 01:55:09;;;;;;;18.17;7.80;;;8.50;99.90;;;;;;4973020;28;20097;-81
2023/03/20 01:57:36;;;;;;;15.87;8.10;;;8.60;99.90;;;;;;4985936;28;20045;-81
2023/03/20 02:00:12;;;;;;;17.53;8.40;;;8.50;99.90;;;;;;5015746;28;20035;-81
2023/03/20 02:02:39;;;;;;;19.93;8.30;;;8.50;99.90;;;;;;5003006;28;20046;-81
2023/03/20 02:05:10;;;;;;;16.73;7.77;;;8.50;99.90;;;;;;4984562;28;20132;-81
2023/03/20 02:07:38;;;;;;;15.93;7.23;;;8.50;99.90;;;;;;5011477;28;20129;-81
2023/03/20 02:10:09;;;;;;;16.17;7.47;;;8.50;99.90;;;;;;5011704;28;20133;-81
2023/03/20 02:12:36;;;;;;;17.88;7.82;;;8.50;99.90;;;;;;4986880;28;20504;-81
2023/03/20 02:15:04;;;;;;;16.17;8.03;;;8.50;99.90;;;;;;4994966;28;20499;-81
2023/03/20 02:17:31;;;;;;;17.20;7.97;;;8.50;99.90;;;;;;4980163;28;20042;-81
2023/03/20 02:20:06;;;;;;;12.80;7.77;;;8.50;99.90;;;;;;5002412;28;20089;-81
2023/03/20 02:22:46;;;;;;;14.63;7.10;;;8.50;99.90;;;;;;5009893;28;20500;-81
2023/03/20 02:25:30;;;;;;;14.40;7.13;;;8.50;99.90;;;;;;5008705;28;20528;-81
2023/03/20 02:28:21;;;;;;;13.40;7.47;;;8.40;99.90;;;;;;4986771;28;20050;-81
2023/03/20 02:30:50;;;;;;;12.93;7.17;;;8.40;99.90;;;;;;4993548;28;20485;-80
2023/03/20 02:33:18;;;;;;;11.67;7.43;;;8.40;99.90;;;;;;4994117;28;20125;-81
2023/03/20 02:36:06;;;;;;;17.37;9.07;;;8.40;99.90;;;;;;5010927;28;20049;-81
2023/03/20 02:38:55;;;;;;;14.33;8.57;;;8.40;99.90;;;;;;5008966;28;20181;-81
2023/03/20 02:41:50;;;;;;;17.10;8.73;;;8.40;99.90;;;;;;4986237;28;20104;-81
2023/03/20 02:44:37;;;;;;;20.87;10.47;;;8.40;99.90;;;;;;4988977;28;20033;-81
2023/03/20 02:47:07;;;;;;;20.67;11.00;;;8.40;99.90;;;;;;4992816;28;20038;-80
2023/03/20 02:49:51;;;;;;;20.17;10.60;;;8.40;99.90;;;;;;4984788;28;20772;-81
2023/03/20 02:52:50;;;;;;;17.77;10.90;;;8.30;99.90;;;;;;5002611;28;20052;-80
2023/03/20 02:55:23;;;;;;;21.90;11.97;;;8.30;99.90;;;;;;5009850;28;20038;-81
2023/03/20 02:58:05;;;;;;;24.33;11.50;;;8.30;99.90;;;;;;5010168;28;20042;-81
2023/03/20 03:00:47;;;;;;;17.90;11.88;;;8.30;99.90;;;;;;5003225;28;20416;-81
2023/03/20 03:03:23;;;;;;;21.73;11.57;;;8.40;99.90;;;;;;5001989;28;20048;-81
2023/03/20 03:06:18;;;;;;;19.33;11.53;;;8.30;99.90;;;;;;4992917;28;20050;-81
2023/03/20 03:08:49;;;;;;;22.23;11.70;;;8.40;99.90;;;;;;4986897;28;20492;-81
2023/03/20 03:11:16;;;;;;;19.70;11.47;;;8.40;99.90;;;;;;5003909;28;20124;-81
2023/03/20 03:13:50;;;;;;;24.60;11.60;;;8.40;99.90;;;;;;4999009;28;20542;-81
2023/03/20 03:16:23;;;;;;;22.23;11.13;;;8.40;99.90;;;;;;4991666;28;20043;-81
2023/03/20 03:18:58;;;;;;;19.23;11.43;;;8.40;99.90;;;;;;4977948;28;20042;-81
2023/03/20 03:21:24;;;;;;;20.87;12.07;;;8.40;99.90;;;;;;5012230;28;20065;-81
2023/03/20 03:23:51;;;;;;;22.23;10.80;;;8.40;99.90;;;;;;4997643;28;20374;-81
2023/03/20 03:26:23;;;;;;;19.10;11.37;;;8.40;99.90;;;;;;4980083;28;20057;-81
2023/03/20 03:28:54;;;;;;;20.85;10.35;;;8.30;99.90;;;;;;5007080;28;20699;-81
2023/03/20 03:31:20;;;;;;;19.80;10.90;;;8.30;99.90;;;;;;4981867;28;20052;-81
2023/03/20 03:33:52;;;;;;;21.13;11.57;;;8.40;99.90;;;;;;4992547;28;20045;-82
2023/03/20 03:36:35;;;;;;;18.52;10.75;;;8.30;99.90;;;;;;4994299;28;20387;-82
2023/03/20 03:39:42;;;;;;;22.83;11.13;;;8.40;99.90;;;;;;4991812;28;20142;-82
2023/03/20 03:42:22;;;;;;;19.17;10.70;;;8.40;99.90;;;;;;4994419;28;20535;-81
2023/03/20 03:44:57;;;;;;;22.40;11.50;;;8.40;99.90;;;;;;5001988;28;20045;-81
2023/03/20 03:47:29;;;;;;;24.33;12.20;;;8.30;99.90;;;;;;5009050;28;20042;-81
2023/03/20 03:50:04;;;;;;;22.83;11.27;;;8.30;99.90;;;;;;5010561;28;20069;-81
2023/03/20 03:52:32;;;;;;;20.33;11.63;;;8.40;99.90;;;;;;4987425;28;20522;-82
2023/03/20 03:55:07;;;;;;;19.33;11.27;;;8.30;99.90;;;;;;4973808;28;20472;-81
2023/03/20 03:57:46;;;;;;;21.60;11.93;;;8.40;99.90;;;;;;4994553;28;20045;-82
2023/03/20 04:00:16;;;;;;;21.10;13.03;;;8.40;99.90;;;;;;4996604;28;20037;-81
2023/03/20 04:02:44;;;;;;;24.33;12.47;;;8.30;99.90;;;;;;5013387;28;20148;-81
2023/03/20 04:05:12;;;;;;;19.37;11.67;;;8.30;99.90;;;;;;4985454;28;20037;-81
2023/03/20 04:07:38;;;;;;;22.90;12.03;;;8.30;99.90;;;;;;5007975;28;20103;-81
2023/03/20 04:10:04;;;;;;;21.20;12.20;;;8.30;99.90;;;;;;5007135;28;20037;-81
2023/03/20 04:12:41;;;;;;;21.77;11.57;;;8.30;99.90;;;;;;4977550;28;20125;-81
2023/03/20 04:15:08;;;;;;;22.40;12.47;;;8.30;99.90;;;;;;5009655;28;20538;-81
2023/03/20 04:17:34;;;;;;;20.97;11.63;;;8.30;99.90;;;;;;5004602;28;20045;-81
2023/03/20 04:20:00;;;;;;;19.40;12.13;;;8.30;99.90;;;;;;4994667;28;20099;-81
2023/03/20 04:22:26;;;;;;;22.83;12.33;;;8.30;99.90;;;;;;5015394;28;20508;-81
2023/03/20 04:24:52;;;;;;;20.23;11.60;;;8.30;99.90;;;;;;4990544;28;20048;-81
2023/03/20 04:27:18;;;;;;;22.53;11.97;;;8.30;99.90;;;;;;5034362;28;20791;-81
2023/03/20 04:29:44;;;;;;;20.10;11.27;;;8.30;99.90;;;;;;4983764;28;20046;-82
2023/03/20 04:32:10;;;;;;;20.23;11.30;;;8.30;99.90;;;;;;4990200;28;20046;-81
2023/03/20 04:34:35;;;;;;;22.37;10.60;;;8.30;99.90;;;;;;4992580;28;20046;-81
2023/03/20 04:37:01;;;;;;;20.77;10.63;;;8.30;99.90;;;;;;4999278;28;20052;-81
2023/03/20 04:39:27;;;;;;;18.43;11.10;;;8.30;99.90;;;;;;5015990;28;20095;-81
2023/03/20 04:41:53;;;;;;;18.87;10.90;;;8.30;99.90;;;;;;4996852;28;20041;-81
2023/03/20 04:44:19;;;;;;;17.40;10.53;;;8.20;99.90;;;;;;5015098;28;20044;-82
2023/03/20 04:46:44;;;;;;;19.77;10.83;;;8.20;99.90;;;;;;4987335;28;20041;-81
2023/03/20 04:49:10;;;;;;;17.20;10.97;;;8.20;99.90;;;;;;4989735;28;20076;-81
2023/03/20 04:51:36;;;;;;;23.07;11.43;;;8.20;99.90;;;;;;5016002;28;20044;-81
2023/03/20 04:54:02;;;;;;;17.10;10.43;;;8.20;99.90;;;;;;4999391;28;20116;-81
2023/03/20 04:56:27;;;;;;;19.17;12.07;;;8.20;99.90;;;;;;5015956;28;20048;-81
2023/03/20 04:58:53;;;;;;;14.77;9.43;;;8.20;99.90;;;;;;4990582;28;20060;-81
2023/03/20 05:01:19;;;;;;;16.63;9.77;;;8.20;99.90;;;;;;4999405;28;20041;-81
2023/03/20 05:03:45;;;;;;;17.53;9.63;;;8.20;99.90;;;;;;4999379;28;20042;-81
2023/03/20 05:06:11;;;;;;;16.57;8.77;;;8.20;99.90;;;;;;4995220;28;20080;-81
2023/03/20 05:08:37;;;;;;;20.20;9.20;;;8.20;99.90;;;;;;5006235;28;20168;-82
2023/03/20 05:11:03;;;;;;;12.80;8.63;;;8.10;99.90;;;;;;4970625;28;20120;-81
2023/03/20 05:13:29;;;;;;;15.20;8.83;;;8.10;99.90;;;;;;4979848;28;20044;-82
2023/03/20 05:15:55;;;;;;;14.27;7.83;;;8.10;99.90;;;;;;5015823;28;20048;-81
2023/03/20 05:18:21;;;;;;;14.57;7.53;;;8.10;99.90;;;;;;4979484;28;20176;-81
2023/03/20 05:20:49;;;;;;;15.53;8.50;;;8.10;99.90;;;;;;4988747;28;20120;-81
2023/03/20 05:23:15;;;;;;;13.00;7.40;;;8.10;99.90;;;;;;4994482;28;20056;-81
2023/03/20 05:25:40;;;;;;;15.13;8.63;;;8.10;99.90;;;;;;4987500;28;20038;-82
2023/03/20 05:28:06;;;;;;;16.60;8.97;;;8.10;99.90;;;;;;5010873;28;20408;-81
2023/03/20 05:30:32;;;;;;;13.00;7.87;;;8.10;99.90;;;;;;4995077;28;20042;-81
2023/03/20 05:32:58;;;;;;;16.93;8.83;;;8.10;99.90;;;;;;4971319;28;20533;-81
2023/03/20 05:35:24;;;;;;;13.97;8.53;;;8.10;99.90;;;;;;5007750;28;20387;-81
2023/03/20 05:37:49;;;;;;;15.70;9.30;;;8.10;99.90;;;;;;5009923;28;20037;-81
2023/03/20 05:40:15;;;;;;;16.03;9.07;;;8.10;99.90;;;;;;4983423;28;20044;-82
2023/03/20 05:42:41;;;;;;;14.47;9.13;;;8.10;99.90;;;;;;4979972;28;20096;-81
2023/03/20 05:45:08;;;;;;;17.63;9.87;;;8.10;99.90;;;;;;4985138;28;20070;-81
2023/03/20 05:47:34;;;;;;;17.00;10.10;;;8.10;99.90;;;;;;4984918;28;20042;-81
2023/03/20 05:50:00;;;;;;;17.57;9.80;;;8.10;99.90;;;;;;4990534;28;20506;-81
2023/03/20 05:52:26;;;;;;;17.93;9.63;;;8.10;99.90;;;;;;5008975;28;20405;-81
2023/03/20 05:54:51;;;;;;;16.60;10.07;;;8.10;99.90;;;;;;4977142;28;20038;-81
2023/03/20 05:57:17;;;;;;;18.10;10.30;;;8.10;99.90;;;;;;4982787;28;20037;-81
2023/03/20 05:59:43;;;;;;;18.57;9.93;;;8.10;99.90;;;;;;4963644;28;20088;-82
2023/03/20 06:02:09;;;;;;;21.67;10.53;;;8.10;99.90;;;;;;4974589;28;20073;-81
2023/03/20 06:04:36;;;;;;;16.10;10.33;;;8.10;99.90;;;;;;4982197;28;20117;-81
2023/03/20 06:07:03;;;;;;;20.97;10.43;;;8.10;99.90;;;;;;4989279;28;20177;-81
2023/03/20 06:09:28;;;;;;;17.97;10.50;;;8.10;99.90;;;;;;5011461;28;20049;-81
2023/03/20 06:11:55;;;;;;;15.43;9.97;;;8.10;99.90;;;;;;4990656;28;20053;-81
2023/03/20 06:14:21;;;;;;;18.07;10.10;;;8.10;99.90;;;;;;4995461;28;20120;-80
2023/03/20 06:16:46;;;;;;;19.67;10.83;;;8.10;99.90;;;;;;4990827;28;20176;-81
2023/03/20 06:19:12;;;;;;;17.13;10.87;;;8.10;99.90;;;;;;4961097;28;20046;-81
2023/03/20 06:21:38;;;;;;;16.63;10.60;;;8.10;99.90;;;;;;4988165;28;20056;-81
2023/03/20 06:24:04;;;;;;;17.13;10.70;;;8.10;99.90;;;;;;4988179;28;20042;-81
2023/03/20 06:26:30;;;;;;;19.37;10.47;;;8.10;99.90;;;;;;4980676;28;20049;-82
2023/03/20 06:28:55;;;;;;;18.27;10.73;;;8.20;99.90;;;;;;4965663;28;20066;-81
2023/03/20 06:31:22;;;;;;;18.27;10.87;;;8.20;99.90;;;;;;4987075;28;20045;-82
2023/03/20 06:33:47;;;;;;;17.47;11.60;;;8.20;99.90;;;;;;5007017;28;20387;-81
2023/03/20 06:36:13;;;;;;;18.93;11.10;;;8.20;99.90;;;;;;4985763;28;20053;-82
2023/03/20 06:38:39;;;;;;;17.90;11.07;;;8.20;99.90;;;;;;4989200;28;20504;-81
2023/03/20 06:41:05;;;;;;;20.77;11.50;;;8.30;99.90;;;;;;4986337;28;20124;-81
2023/03/20 06:43:31;;;;;;;21.27;11.37;;;8.30;99.90;;;;;;4990065;28;20045;-81
2023/03/20 06:45:57;;;;;;;20.60;11.00;;;8.30;99.90;;;;;;4973769;28;20489;-83
2023/03/20 06:48:23;;;;;;;19.73;11.47;;;8.30;99.90;;;;;;5003976;28;20046;-83
2023/03/20 06:50:49;;;;;;;18.87;11.23;;;8.40;99.90;;;;;;4975614;28;20101;-82
2023/03/20 06:53:16;;;;;;;15.73;10.73;;;8.40;99.90;;;;;;4993511;28;20174;-82
2023/03/20 06:55:45;;;;;;;18.70;10.47;;;8.40;99.90;;;;;;5010230;28;20042;-82
2023/03/20 06:58:11;;;;;;;18.07;9.93;;;8.40;99.90;;;;;;4995052;28;20034;-82
2023/03/20 07:00:36;;;;;;;17.83;10.57;;;8.50;99.90;;;;;;5004940;28;20049;-82
2023/03/20 07:03:03;;;;;;;17.30;10.33;;;8.50;99.90;;;;;;4981245;28;20126;-82
2023/03/20 07:05:29;;;;;;;17.40;10.53;;;8.50;99.90;;;;;;4967270;28;20132;-82
2023/03/20 07:07:54;;;;;;;15.97;10.37;;;8.50;99.90;;;;;;5000138;28;20510;-82
2023/03/20 07:10:20;;;;;;;18.70;9.97;;;8.50;99.90;;;;;;4981853;28;20132;-82
2023/03/20 07:12:47;;;;;;;15.30;9.73;;;8.50;99.90;;;;;;4984593;28;20050;-82
2023/03/20 07:15:12;;;;;;;15.60;9.43;;;8.50;99.90;;;;;;4982548;28;20601;-83
2023/03/20 07:17:38;;;;;;;16.40;10.07;;;8.50;99.90;;;;;;5000935;28;20034;-83
2023/03/20 07:20:04;;;;;;;18.67;10.30;;;8.50;99.90;;;;;;4998776;28;20062;-83
2023/03/20 07:22:30;;;;;;;14.80;9.93;;;8.50;99.90;;;;;;4980931;28;20074;-83
2023/03/20 07:24:56;;;;;;;15.93;10.07;;;8.60;99.90;;;;;;4996933;28;20073;-82
2023/03/20 07:27:22;;;;;;;18.47;10.73;;;8.60;99.90;;;;;;4999659;28;20077;-83
2023/03/20 07:29:48;;;;;;;17.30;10.10;;;8.60;99.90;;;;;;4998961;28;20173;-83
2023/03/20 07:32:15;;;;;;;18.37;9.93;;;8.60;99.90;;;;;;4999045;28;20077;-83
2023/03/20 07:34:41;;;;;;;20.17;10.40;;;8.60;99.90;;;;;;5000569;28;20038;-83
2023/03/20 07:37:07;;;;;;;17.10;9.60;;;8.60;99.90;;;;;;4966460;28;20060;-83
2023/03/20 07:39:33;;;;;;;15.43;9.67;;;8.70;99.90;;;;;;5000762;28;20046;-83
2023/03/20 07:41:59;;;;;;;14.63;9.77;;;8.70;99.90;;;;;;4983155;28;20128;-82
2023/03/20 07:44:24;;;;;;;19.27;9.77;;;8.80;99.90;;;;;;4999158;28;20041;-83
2023/03/20 07:46:53;;;;;;;17.00;9.67;;;8.80;99.90;;;;;;5001184;28;20121;-83
2023/03/20 07:49:19;;;;;;;17.13;10.00;;;8.80;99.90;;;;;;5004221;28;20048;-84
2023/03/20 07:51:47;;;;;;;16.07;10.07;;;8.80;99.90;;;;;;4986174;28;20046;-83
2023/03/20 07:54:14;;;;;;;20.30;10.20;;;8.90;99.90;;;;;;4975732;28;20119;-84
2023/03/20 07:56:40;;;;;;;18.47;10.53;;;9.00;99.90;;;;;;5003377;28;21483;-83
2023/03/20 07:59:05;;;;;;;18.33;10.23;;;9.00;99.90;;;;;;4972288;28;20048;-83
2023/03/20 08:01:31;;;;;;;15.67;10.13;;;9.10;99.90;;;;;;4975475;28;20437;-83
2023/03/20 08:03:57;;;;;;;21.37;10.47;;;9.10;99.90;;;;;;4988289;28;20041;-83
2023/03/20 08:06:23;;;;;;;18.70;10.40;;;9.20;99.90;;;;;;4989254;28;20038;-83
2023/03/20 08:08:52;;;;;;;14.97;9.67;;;9.20;99.90;;;;;;4989244;28;20482;-83
2023/03/20 08:11:18;;;;;;;14.83;9.90;;;9.20;99.90;;;;;;4986544;28;20046;-83
2023/03/20 08:13:44;;;;;;;18.00;10.37;;;9.20;99.90;;;;;;4988721;28;20049;-82
2023/03/20 08:16:10;;;;;;;16.90;10.67;;;9.20;99.90;;;;;;5003634;28;20053;-83
2023/03/20 08:18:36;;;;;;;15.77;9.53;;;9.30;99.90;;;;;;4987078;28;20121;-83
2023/03/20 08:21:02;;;;;;;18.60;10.40;;;9.30;99.90;;;;;;5003436;28;20041;-83
2023/03/20 08:23:28;;;;;;;15.83;9.80;;;9.30;99.90;;;;;;5023692;28;20089;-83
2023/03/20 08:25:54;;;;;;;18.47;10.07;;;9.30;99.90;;;;;;5022545;28;20049;-83
2023/03/20 08:28:20;;;;;;;17.03;10.37;;;9.30;99.90;;;;;;5007289;28;20431;-83
2023/03/20 08:30:46;;;;;;;17.80;10.00;;;9.30;99.90;;;;;;4990183;28;20141;-83
2023/03/20 08:33:17;;;;;;;17.07;10.33;;;9.40;99.90;;;;;;4992747;28;20045;-83
2023/03/20 08:35:43;;;;;;;16.27;9.50;;;9.50;99.90;;;;;;4993090;28;20041;-83
2023/03/20 08:38:12;;;;;;;17.47;10.03;;;9.50;99.90;;;;;;4989469;28;20044;-82
2023/03/20 08:40:40;;;;;;;16.60;9.70;;;9.60;99.90;;;;;;5006208;28;20033;-82
2023/03/20 08:43:07;;;;;;;14.97;9.50;;;9.70;99.90;;;;;;4991114;28;20045;-83
2023/03/20 08:45:33;;;;;;;16.30;9.03;;;9.80;99.90;;;;;;4988915;28;20052;-82
2023/03/20 08:47:58;;;;;;;19.87;10.20;;;9.90;99.90;;;;;;5005971;28;20511;-82
2023/03/20 08:50:24;;;;;;;17.73;9.30;;;9.90;99.90;;;;;;4991254;28;20107;-81
2023/03/20 08:52:50;;;;;;;17.67;9.87;;;10.00;99.90;;;;;;4973329;28;20052;-83
2023/03/20 08:55:16;;;;;;;16.57;9.47;;;10.00;99.90;;;;;;5023767;28;20021;-85
2023/03/20 08:57:42;;;;;;;17.53;9.13;;;10.10;99.90;;;;;;4992382;28;20564;-83
2023/03/20 09:00:11;;;;;;;16.87;9.37;;;10.10;99.90;;;;;;5011272;28;20049;-83
2023/03/20 09:02:37;;;;;;;13.03;8.93;;;10.10;99.90;;;;;;4992362;28;20045;-84
2023/03/20 09:05:03;;;;;;;18.50;9.70;;;10.20;99.90;;;;;;4977197;28;20111;-83
2023/03/20 09:07:29;;;;;;;18.43;9.63;;;10.20;99.90;;;;;;4991169;28;20057;-83
2023/03/20 09:09:55;;;;;;;15.67;9.93;;;10.20;99.90;;;;;;5006483;28;20051;-82
2023/03/20 09:12:21;;;;;;;15.97;9.53;;;10.30;99.90;;;;;;5005914;28;20124;-82
2023/03/20 09:14:47;;;;;;;15.50;9.90;;;10.30;99.90;;;;;;4989916;28;20175;-82
2023/03/20 09:17:13;;;;;;;17.07;9.23;;;10.30;99.90;;;;;;4963699;28;20045;-82
2023/03/20 09:19:43;;;;;;;16.90;9.40;;;10.30;99.90;;;;;;4991808;28;20060;-83
2023/03/20 09:22:16;;;;;;;18.30;9.80;;;10.30;99.90;;;;;;4976620;28;20049;-82
2023/03/20 09:24:43;;;;;;;17.10;9.67;;;10.40;99.90;;;;;;5007226;28;20084;-83
2023/03/20 09:27:12;;;;;;;18.83;11.10;;;10.50;99.90;;;;;;5003632;28;20042;-82
2023/03/20 09:29:42;;;;;;;17.67;9.97;;;10.60;99.90;;;;;;4988258;28;20088;-82
2023/03/20 09:32:12;;;;;;;17.60;9.83;;;10.70;99.90;;;;;;4975750;28;20537;-82
2023/03/20 09:34:38;;;;;;;15.70;9.53;;;10.80;99.90;;;;;;4990120;28;20045;-83
2023/03/20 09:37:05;;;;;;;16.17;10.37;;;10.80;99.90;;;;;;4968776;28;20029;-82
2023/03/20 09:39:32;;;;;;;17.17;9.90;;;10.80;99.90;;;;;;5004823;28;20057;-82
2023/03/20 09:42:06;;;;;;;16.87;9.73;;;10.90;99.90;;;;;;5008535;28;20056;-82
2023/03/20 09:44:41;;;;;;;16.53;9.67;;;11.00;99.90;;;;;;4993162;28;20103;-83
2023/03/20 09:47:12;;;;;;;18.97;9.93;;;11.30;99.90;;;;;;5025054;28;20092;-83
2023/03/20 09:49:41;;;;;;;15.20;9.60;;;11.60;99.90;;;;;;4984215;28;20099;-83
2023/03/20 09:52:36;;;;;;;14.60;9.40;;;11.70;99.90;;;;;;5010044;28;20042;-83
2023/03/20 09:55:13;;;;;;;18.23;9.83;;;11.70;99.90;;;;;;4987377;28;20030;-83
2023/03/20 09:57:41;;;;;;;15.53;9.97;;;11.70;99.90;;;;;;4986801;28;20489;-82
2023/03/20 10:00:15;;;;;;;17.50;9.27;;;11.70;99.90;;;;;;4989114;28;20042;-82
2023/03/20 10:03:00;;;;;;;16.10;9.00;;;11.70;99.90;;;;;;5021995;28;20049;-83
2023/03/20 10:06:00;;;;;;;16.40;9.63;;;11.80;99.90;;;;;;5004936;28;20492;-83
2023/03/20 10:08:31;;;;;;;15.70;9.27;;;11.90;99.90;;;;;;4971823;28;20114;-83
2023/03/20 10:11:32;;;;;;;15.43;9.70;;;11.90;99.90;;;;;;5006099;28;20056;-83
2023/03/20 10:14:17;;;;;;;16.73;10.40;;;11.90;99.90;;;;;;5006587;28;20045;-83
2023/03/20 10:17:20;;;;;;;16.42;9.45;;;11.80;99.90;;;;;;5004963;28;20042;-83
2023/03/20 10:20:20;;;;;;;18.58;9.57;;;11.70;99.90;;;;;;4986091;28;20048;-83
2023/03/20 10:22:50;;;;;;;15.02;10.13;;;11.70;99.90;;;;;;4947358;28;20084;-83
2023/03/20 10:25:38;;;;;;;17.63;9.73;;;11.70;99.90;;;;;;4991874;28;20050;-82
2023/03/20 10:28:38;;;;;;;23.37;11.57;;;11.80;99.90;;;;;;4988482;28;20480;-83
2023/03/20 10:31:34;;;;;;;14.93;10.38;;;11.90;99.90;;;;;;4996474;28;20763;-81
2023/03/20 10:34:19;;;;;;;14.80;9.88;;;11.90;99.90;;;;;;4987418;28;20060;-82
2023/03/20 10:36:51;;;;;;;13.70;8.95;;;11.80;99.90;;;;;;5002599;28;20041;-82
2023/03/20 10:39:25;;;;;;;13.52;8.52;;;11.60;99.90;;;;;;4986097;28;20033;-81
2023/03/20 10:41:58;;;;;;;14.85;8.73;;;11.60;99.90;;;;;;4988512;28;20493;-82
2023/03/20 10:44:35;;;;;;;15.20;9.63;;;11.60;99.90;;;;;;4988071;28;20080;-82
2023/03/20 10:47:04;;;;;;;12.88;9.32;;;11.60;99.90;;;;;;5000423;28;20635;-82
2023/03/20 10:49:42;;;;;;;14.07;9.97;;;11.50;99.90;;;;;;5001707;28;20058;-83
2023/03/20 10:52:23;;;;;;;14.90;10.97;;;11.40;99.90;;;;;;4985294;28;20060;-83
2023/03/20 10:54:55;;;;;;;14.77;10.88;;;11.30;99.90;;;;;;4990120;28;20110;-82
2023/03/20 10:57:27;;;;;;;16.05;10.65;;;11.10;99.90;;;;;;4987146;28;20076;-81
2023/03/20 10:59:57;;;;;;;17.17;11.30;;;11.00;99.90;;;;;;4987541;28;20076;-82
2023/03/20 11:02:27;;;;;;;17.43;11.83;;;10.90;99.90;;;;;;5004316;28;20526;-81
2023/03/20 11:04:52;;;;;;;16.70;10.90;;;10.90;99.90;;;;;;5006084;28;20038;-82
2023/03/20 11:07:38;;;;;;;15.63;12.00;;;10.80;99.90;;;;;;5004741;28;20423;-82
2023/03/20 11:10:04;;;;;;;17.77;11.63;;;10.70;99.90;;;;;;4990488;28;20120;-81
2023/03/20 11:12:39;;;;;;;16.97;11.80;;;10.70;99.90;;;;;;5004467;28;20051;-84
2023/03/20 11:15:45;;;;;;;17.20;11.10;;;10.60;99.90;;;;;;4988035;28;20041;-84
2023/03/20 11:18:14;;;;;;;15.90;11.93;;;10.60;99.90;;;;;;4999750;28;20807;-83
2023/03/20 11:20:55;;;;;;;16.43;11.33;;;10.60;99.90;;;;;;4986201;28;20055;-84
2023/03/20 11:23:34;;;;;;;22.40;11.57;;;10.70;99.90;;;;;;5008013;28;21811;-83
2023/03/20 11:26:15;;;;;;;20.63;12.23;;;10.70;99.90;;;;;;5009687;28;20042;-82
2023/03/20 11:28:55;;;;;;;15.13;10.30;;;10.70;99.90;;;;;;4991065;28;20048;-83
2023/03/20 11:31:34;;;;;;;16.87;10.53;;;10.60;99.90;;;;;;5001380;28;20178;-83
2023/03/20 11:34:03;;;;;;;16.20;10.53;;;10.70;99.90;;;;;;5026987;28;20137;-84
2023/03/20 11:36:36;;;;;;;14.33;10.23;;;10.70;99.90;;;;;;4991734;28;20519;-82
2023/03/20 11:39:13;;;;;;;14.63;10.13;;;10.70;99.90;;;;;;5008353;28;20041;-83
2023/03/20 11:41:49;;;;;;;26.67;10.57;;;10.80;99.90;;;;;;5010315;28;20041;-83
2023/03/20 11:44:26;;;;;;;14.67;10.30;;;10.80;99.90;;;;;;4991272;28;20034;-84
2023/03/20 11:47:14;;;;;;;13.83;9.87;;;10.90;99.90;;;;;;5011560;28;20042;-84
2023/03/20 11:49:55;;;;;;;11.47;8.27;;;10.90;99.90;;;;;;5004632;28;20042;-83
2023/03/20 11:52:27;;;;;;;15.07;7.97;;;10.90;99.90;;;;;;5007920;28;20395;-84
2023/03/20 11:54:56;;;;;;;12.48;8.13;;;10.90;99.90;;;;;;4998272;28;20493;-83
2023/03/20 11:57:33;;;;;;;15.63;8.47;;;10.80;99.90;;;;;;5012643;28;20038;-83
2023/03/20 12:00:10;;;;;;;14.17;9.97;;;10.90;99.90;;;;;;4986904;28;20033;-84
2023/03/20 12:02:38;;;;;;;14.40;8.73;;;10.80;99.90;;;;;;5017199;28;20536;-83
2023/03/20 12:05:36;;;;;;;13.23;9.03;;;10.70;99.90;;;;;;5000085;28;20049;-83
2023/03/20 12:08:11;;;;;;;11.63;8.50;;;10.70;99.90;;;;;;5014448;28;20050;-82
2023/03/20 12:10:41;;;;;;;13.20;8.43;;;10.60;99.90;;;;;;5017754;28;20176;-83
2023/03/20 12:13:19;;;;;;;10.90;8.70;;;10.50;99.90;;;;;;4989066;28;20056;-83
2023/03/20 12:15:58;;;;;;;13.93;8.63;;;10.60;99.90;;;;;;5017807;28;20660;-83
2023/03/20 12:18:39;;;;;;;11.43;8.13;;;10.60;99.90;;;;;;4983127;28;20125;-84
2023/03/20 12:21:07;;;;;;;13.03;8.30;;;10.60;99.90;;;;;;4998227;28;20099;-83
2023/03/20 12:23:44;;;;;;;13.47;8.70;;;10.60;99.90;;;;;;4982431;28;20242;-84
2023/03/20 12:26:14;;;;;;;14.53;8.43;;;10.50;99.90;;;;;;4999157;28;20045;-82
2023/03/20 12:28:49;;;;;;;14.57;8.57;;;10.40;99.90;;;;;;4990241;28;20428;-83
2023/03/20 12:31:24;;;;;;;11.93;8.40;;;10.40;99.90;;;;;;4997475;28;20048;-83
2023/03/20 12:33:53;;;;;;;9.53;6.80;;;10.40;99.90;;;;;;5012754;28;20041;-83
2023/03/20 12:36:40;;;;;;;13.53;8.37;;;10.30;99.90;;;;;;5014092;28;20066;-83
2023/03/20 12:39:22;;;;;;;14.23;7.30;;;10.30;99.90;;;;;;5002887;28;20045;-83
2023/03/20 12:42:25;;;;;;;11.83;6.30;;;10.30;99.90;;;;;;5000438;28;20145;-83
2023/03/20 12:45:17;;;;;;;7.43;4.87;;;10.30;99.90;;;;;;4999393;28;20444;-82
2023/03/20 12:48:04;;;;;;;7.80;5.13;;;10.20;99.90;;;;;;4985960;28;20041;-82
2023/03/20 12:51:02;;;;;;;10.77;5.47;;;10.20;99.90;;;;;;5006623;28;20073;-83
2023/03/20 12:53:46;;;;;;;7.03;4.73;;;10.20;99.90;;;;;;4990326;28;20405;-83
2023/03/20 12:56:59;;;;;;;10.90;5.30;;;10.20;99.90;;;;;;4996789;28;20042;-83
2023/03/20 12:59:54;;;;;;;7.40;3.80;;;10.30;99.90;;;;;;4915974;29;20040;-82
2023/03/20 13:02:29;;;;;;;7.03;3.40;;;10.30;99.90;;;;;;4997317;28;20041;-82